Time;durP1;ratioP1;P1;durP2;ratioP2;P2;SDS_P1;SDS_P2;PMS_P1;PMS_P2;Temp;Humidity;BMP_temperature;BMP_pressure;BME280_temperature;BME280_humidity;BME280_pressure;Samples;Min_cycle;Max_cycle;Signal;HPM_P1;HPM_P2
2024/01/18 00:00:41;;;;;;;41.03;13.68;;;;;;;;;;5046257;28;20049;-66
2024/01/18 00:03:07;;;;;;;19.05;9.05;;;;;;;;;;5052954;28;20045;-66
2024/01/18 00:05:34;;;;;;;23.45;9.65;;;;;;;;;;5052927;28;20052;-66
2024/01/18 00:08:01;;;;;;;11.93;7.10;;;;;;;;;;5035434;28;20051;-66
2024/01/18 00:10:28;;;;;;;11.57;7.68;;;;;;;;;;5052315;28;20051;-66
2024/01/18 00:12:54;;;;;;;12.48;6.43;;;;;;;;;;5052667;28;20094;-66
2024/01/18 00:15:21;;;;;;;10.95;6.72;;;;;;;;;;5052594;28;20048;-66
2024/01/18 00:17:47;;;;;;;9.80;6.45;;;;;;;;;;5051847;28;20127;-65
2024/01/18 00:20:14;;;;;;;9.60;6.22;;;;;;;;;;5052150;28;20044;-66
2024/01/18 00:22:40;;;;;;;10.18;6.22;;;;;;;;;;5043947;28;20044;-66
2024/01/18 00:25:09;;;;;;;10.15;6.00;;;;;;;;;;5043296;28;20049;-66
2024/01/18 00:27:35;;;;;;;8.90;6.25;;;;;;;;;;5047547;28;20056;-66
2024/01/18 00:30:02;;;;;;;11.45;6.55;;;;;;;;;;5039740;28;20056;-66
2024/01/18 00:32:28;;;;;;;9.70;6.07;;;;;;;;;;5043934;28;20053;-66
2024/01/18 00:34:55;;;;;;;10.05;6.55;;;;;;;;;;5045149;28;20054;-66
2024/01/18 00:37:21;;;;;;;11.93;7.05;;;;;;;;;;5050205;28;20415;-66
2024/01/18 00:39:47;;;;;;;12.05;6.93;;;;;;;;;;5051749;28;20552;-66
2024/01/18 00:42:16;;;;;;;9.85;6.15;;;;;;;;;;5043821;28;20050;-66
2024/01/18 00:44:42;;;;;;;11.25;7.13;;;;;;;;;;5046875;28;20049;-66
2024/01/18 00:47:08;;;;;;;10.50;6.50;;;;;;;;;;5044448;28;20154;-65
2024/01/18 00:49:35;;;;;;;9.85;6.43;;;;;;;;;;5042706;28;20055;-66
2024/01/18 00:52:02;;;;;;;10.98;7.15;;;;;;;;;;5051887;28;20051;-65
2024/01/18 00:54:28;;;;;;;10.35;6.47;;;;;;;;;;5043701;28;20124;-66
2024/01/18 00:56:55;;;;;;;11.25;6.97;;;;;;;;;;5047170;28;20052;-66
2024/01/18 00:59:24;;;;;;;10.35;6.72;;;;;;;;;;5042773;28;20049;-66
2024/01/18 01:01:50;;;;;;;10.70;6.97;;;;;;;;;;5051695;28;20463;-66
2024/01/18 01:04:17;;;;;;;10.82;6.47;;;;;;;;;;5051395;28;20136;-65
2024/01/18 01:06:43;;;;;;;10.85;7.10;;;;;;;;;;5051324;28;20077;-66
2024/01/18 01:09:11;;;;;;;12.05;7.57;;;;;;;;;;5042766;28;20045;-66
2024/01/18 01:11:37;;;;;;;10.23;7.07;;;;;;;;;;5051571;28;20048;-66
2024/01/18 01:14:03;;;;;;;11.57;7.15;;;;;;;;;;5051607;28;20051;-66
2024/01/18 01:16:31;;;;;;;10.63;7.13;;;;;;;;;;5050959;28;20408;-66
2024/01/18 01:18:58;;;;;;;10.85;6.93;;;;;;;;;;5050516;28;20051;-66
2024/01/18 01:21:24;;;;;;;10.77;7.35;;;;;;;;;;5051403;28;21792;-66
2024/01/18 01:23:51;;;;;;;10.15;6.72;;;;;;;;;;5051383;28;20045;-66
2024/01/18 01:26:18;;;;;;;9.95;6.30;;;;;;;;;;5048905;28;20136;-66
2024/01/18 01:28:44;;;;;;;10.13;6.47;;;;;;;;;;5039022;28;20064;-67
2024/01/18 01:31:11;;;;;;;8.43;5.30;;;;;;;;;;5048532;28;20515;-66
2024/01/18 01:33:38;;;;;;;10.63;6.93;;;;;;;;;;5046852;28;20045;-66
2024/01/18 01:36:05;;;;;;;10.38;5.82;;;;;;;;;;5039569;28;20067;-66
2024/01/18 01:38:33;;;;;;;10.20;5.90;;;;;;;;;;5050736;28;20474;-66
2024/01/18 01:40:59;;;;;;;9.02;5.57;;;;;;;;;;5039621;28;20095;-67
2024/01/18 01:43:25;;;;;;;12.07;6.38;;;;;;;;;;5039260;28;20053;-67
2024/01/18 01:45:52;;;;;;;10.32;6.50;;;;;;;;;;5037357;28;20049;-67
2024/01/18 01:48:18;;;;;;;10.50;7.13;;;;;;;;;;5049630;28;20481;-66
2024/01/18 01:50:46;;;;;;;10.18;6.13;;;;;;;;;;5042628;28;20052;-66
2024/01/18 01:53:14;;;;;;;10.57;6.80;;;;;;;;;;5042772;28;20048;-66
2024/01/18 01:55:41;;;;;;;10.18;6.30;;;;;;;;;;5046821;28;20048;-67
2024/01/18 01:58:08;;;;;;;12.00;7.05;;;;;;;;;;5032881;28;20052;-67
2024/01/18 02:00:34;;;;;;;11.70;6.68;;;;;;;;;;5038894;28;20052;-67
2024/01/18 02:03:01;;;;;;;9.35;6.20;;;;;;;;;;5042959;28;20049;-66
2024/01/18 02:05:27;;;;;;;9.30;6.40;;;;;;;;;;5050215;28;20055;-66
2024/01/18 02:07:55;;;;;;;10.55;6.20;;;;;;;;;;5049800;28;20045;-66
2024/01/18 02:10:22;;;;;;;10.40;6.65;;;;;;;;;;5050347;28;20045;-66
2024/01/18 02:12:49;;;;;;;10.43;6.88;;;;;;;;;;5036051;28;20516;-66
2024/01/18 02:15:15;;;;;;;10.27;6.55;;;;;;;;;;5048943;28;20453;-66
2024/01/18 02:17:42;;;;;;;10.80;6.53;;;;;;;;;;5037851;28;20075;-66
2024/01/18 02:20:09;;;;;;;10.98;7.20;;;;;;;;;;5041677;28;20512;-66
2024/01/18 02:22:37;;;;;;;10.98;7.20;;;;;;;;;;5034047;28;20045;-66
2024/01/18 02:25:11;;;;;;;10.20;6.65;;;;;;;;;;5047041;28;20052;-66
2024/01/18 02:27:38;;;;;;;9.43;6.25;;;;;;;;;;5041254;28;20049;-66
2024/01/18 02:30:04;;;;;;;10.90;7.00;;;;;;;;;;5041816;28;20304;-66
2024/01/18 02:32:31;;;;;;;10.93;6.50;;;;;;;;;;5034712;28;20605;-66
2024/01/18 02:34:57;;;;;;;11.82;6.85;;;;;;;;;;5046023;28;20048;-66
2024/01/18 02:37:24;;;;;;;11.65;7.13;;;;;;;;;;5041460;28;20052;-66
2024/01/18 02:39:52;;;;;;;11.63;6.47;;;;;;;;;;5035277;28;20058;-66
2024/01/18 02:42:19;;;;;;;10.20;6.50;;;;;;;;;;5048407;28;20048;-66
2024/01/18 02:44:46;;;;;;;9.60;6.25;;;;;;;;;;5049807;28;20428;-66
2024/01/18 02:47:12;;;;;;;10.48;6.47;;;;;;;;;;5033080;28;20060;-66
2024/01/18 02:49:39;;;;;;;10.75;6.32;;;;;;;;;;5046385;28;20045;-66
2024/01/18 02:52:05;;;;;;;12.32;6.38;;;;;;;;;;5054057;28;20075;-66
2024/01/18 02:54:32;;;;;;;10.13;6.47;;;;;;;;;;5046418;28;20047;-66
2024/01/18 02:56:58;;;;;;;10.35;7.20;;;;;;;;;;5040946;28;20049;-65
2024/01/18 02:59:26;;;;;;;11.38;6.13;;;;;;;;;;5046496;28;20607;-65
2024/01/18 03:01:52;;;;;;;9.18;6.13;;;;;;;;;;5048838;28;20055;-66
2024/01/18 03:04:19;;;;;;;10.65;6.97;;;;;;;;;;5052041;28;20083;-66
2024/01/18 03:06:45;;;;;;;11.07;6.38;;;;;;;;;;5039580;28;20489;-66
2024/01/18 03:09:14;;;;;;;10.48;6.57;;;;;;;;;;5044600;28;20049;-66
2024/01/18 03:11:40;;;;;;;10.77;6.00;;;;;;;;;;5048815;28;20084;-66
2024/01/18 03:14:06;;;;;;;10.95;6.57;;;;;;;;;;5050623;28;20463;-65
2024/01/18 03:16:36;;;;;;;11.75;5.65;;;;;;;;;;5053352;28;20049;-66
2024/01/18 03:19:02;;;;;;;8.00;5.38;;;;;;;;;;5041224;28;20049;-66
2024/01/18 03:21:29;;;;;;;9.48;5.20;;;;;;;;;;5042088;28;20050;-66
2024/01/18 03:23:55;;;;;;;6.45;4.47;;;;;;;;;;5041841;28;20617;-66
2024/01/18 03:26:22;;;;;;;7.95;4.25;;;;;;;;;;5051853;28;20049;-66
2024/01/18 03:28:48;;;;;;;7.32;4.80;;;;;;;;;;5044474;28;20052;-66
2024/01/18 03:31:14;;;;;;;8.18;4.68;;;;;;;;;;5048151;28;20505;-66
2024/01/18 03:33:42;;;;;;;8.63;5.03;;;;;;;;;;5041585;28;20042;-66
2024/01/18 03:36:09;;;;;;;6.85;4.70;;;;;;;;;;5049623;28;20063;-66
2024/01/18 03:38:35;;;;;;;9.00;5.32;;;;;;;;;;5052459;28;20068;-66
2024/01/18 03:41:02;;;;;;;7.68;5.00;;;;;;;;;;5045302;28;20516;-66
2024/01/18 03:43:28;;;;;;;9.40;5.22;;;;;;;;;;5033678;28;20045;-66
2024/01/18 03:45:55;;;;;;;7.22;5.32;;;;;;;;;;5041661;28;20072;-66
2024/01/18 03:48:21;;;;;;;7.65;4.85;;;;;;;;;;5042272;28;20056;-66
2024/01/18 03:50:49;;;;;;;6.07;4.10;;;;;;;;;;5046906;28;20046;-66
2024/01/18 03:53:16;;;;;;;7.43;4.38;;;;;;;;;;5034814;28;20514;-66
2024/01/18 03:55:43;;;;;;;7.45;4.78;;;;;;;;;;5048976;28;20045;-66
2024/01/18 03:58:09;;;;;;;9.05;4.85;;;;;;;;;;5034076;28;20049;-66
2024/01/18 04:00:38;;;;;;;5.85;4.03;;;;;;;;;;5044819;28;20512;-66
2024/01/18 04:03:05;;;;;;;7.00;4.50;;;;;;;;;;5052800;28;20045;-66
2024/01/18 04:05:31;;;;;;;5.68;3.90;;;;;;;;;;5036982;28;20049;-66
2024/01/18 04:07:59;;;;;;;5.68;3.92;;;;;;;;;;5040323;28;20489;-66
2024/01/18 04:10:25;;;;;;;7.13;4.95;;;;;;;;;;5035570;28;20131;-66
2024/01/18 04:12:52;;;;;;;9.48;4.72;;;;;;;;;;5038242;28;20053;-66
2024/01/18 04:15:18;;;;;;;7.57;4.95;;;;;;;;;;5042827;28;20432;-66
2024/01/18 04:17:45;;;;;;;7.65;4.38;;;;;;;;;;5051640;28;20120;-66
2024/01/18 04:20:15;;;;;;;7.43;4.20;;;;;;;;;;5043320;28;20083;-66
2024/01/18 04:22:41;;;;;;;7.25;4.15;;;;;;;;;;5044418;28;20493;-66
2024/01/18 04:25:09;;;;;;;7.47;4.10;;;;;;;;;;5044345;28;20048;-66
2024/01/18 04:27:36;;;;;;;6.32;4.10;;;;;;;;;;5051809;28;20049;-66
2024/01/18 04:30:02;;;;;;;9.55;4.05;;;;;;;;;;5051870;28;20481;-66
2024/01/18 04:32:29;;;;;;;6.05;3.78;;;;;;;;;;5051720;28;20477;-65
2024/01/18 04:34:55;;;;;;;7.75;4.40;;;;;;;;;;5052432;28;20049;-66
2024/01/18 04:37:22;;;;;;;7.53;4.05;;;;;;;;;;5051643;28;20123;-66
2024/01/18 04:39:49;;;;;;;7.38;4.47;;;;;;;;;;5045613;28;20128;-66
2024/01/18 04:42:16;;;;;;;9.23;4.55;;;;;;;;;;5046033;28;20490;-66
2024/01/18 04:44:43;;;;;;;9.93;4.72;;;;;;;;;;5043119;28;20551;-66
2024/01/18 04:47:09;;;;;;;7.80;4.43;;;;;;;;;;5048277;28;20132;-65
2024/01/18 04:49:36;;;;;;;7.38;4.38;;;;;;;;;;5047020;28;20045;-65
2024/01/18 04:52:02;;;;;;;6.97;3.90;;;;;;;;;;5048312;28;20405;-66
2024/01/18 04:54:28;;;;;;;8.05;4.25;;;;;;;;;;5051403;28;20083;-66
2024/01/18 04:56:55;;;;;;;8.55;4.53;;;;;;;;;;5051256;28;20416;-66
2024/01/18 04:59:23;;;;;;;10.23;4.80;;;;;;;;;;5044927;28;20041;-66
2024/01/18 05:01:49;;;;;;;7.50;4.18;;;;;;;;;;5046005;28;20051;-66
2024/01/18 05:04:15;;;;;;;9.05;4.65;;;;;;;;;;5046271;28;20481;-66
2024/01/18 05:06:43;;;;;;;7.65;4.22;;;;;;;;;;5044687;28;20045;-66
2024/01/18 05:09:11;;;;;;;8.25;4.63;;;;;;;;;;5051275;28;20072;-66
2024/01/18 05:11:37;;;;;;;6.93;4.43;;;;;;;;;;5042945;28;20501;-65
2024/01/18 05:14:04;;;;;;;9.05;4.90;;;;;;;;;;5051375;28;20041;-66
2024/01/18 05:16:33;;;;;;;7.70;3.92;;;;;;;;;;5038983;28;20053;-66
2024/01/18 05:18:59;;;;;;;6.43;3.40;;;;;;;;;;5046452;28;20045;-66
2024/01/18 05:21:26;;;;;;;7.05;3.78;;;;;;;;;;5051262;28;20528;-66
2024/01/18 05:23:52;;;;;;;8.50;4.38;;;;;;;;;;5042965;28;20128;-67
2024/01/18 05:26:18;;;;;;;7.22;3.78;;;;;;;;;;5050685;28;20512;-65
2024/01/18 05:28:45;;;;;;;7.28;3.67;;;;;;;;;;5050296;28;20041;-66
2024/01/18 05:31:12;;;;;;;5.05;2.88;;;;;;;;;;5047178;28;20060;-66
2024/01/18 05:33:39;;;;;;;4.43;2.97;;;;;;;;;;5042941;28;20409;-66
2024/01/18 05:36:06;;;;;;;4.72;3.10;;;;;;;;;;5039330;28;20132;-66
2024/01/18 05:38:33;;;;;;;4.90;3.30;;;;;;;;;;5038480;28;20501;-66
2024/01/18 05:40:59;;;;;;;4.97;2.70;;;;;;;;;;5038747;28;20052;-66
2024/01/18 05:43:26;;;;;;;5.63;3.13;;;;;;;;;;5050690;28;20067;-66
2024/01/18 05:45:52;;;;;;;5.35;2.88;;;;;;;;;;5040778;28;20045;-66
2024/01/18 05:48:18;;;;;;;6.70;2.83;;;;;;;;;;5042377;28;20051;-66
2024/01/18 05:50:47;;;;;;;6.03;2.92;;;;;;;;;;5044587;28;20048;-65
2024/01/18 05:53:13;;;;;;;6.38;3.10;;;;;;;;;;5046707;28;20493;-66
2024/01/18 05:55:39;;;;;;;4.50;2.75;;;;;;;;;;5047250;28;20047;-65
2024/01/18 05:58:06;;;;;;;6.18;3.13;;;;;;;;;;5041185;28;20467;-66
2024/01/18 06:00:32;;;;;;;5.55;3.38;;;;;;;;;;5038866;28;20052;-66
2024/01/18 06:02:59;;;;;;;6.90;4.05;;;;;;;;;;5050290;28;20132;-66
2024/01/18 06:05:25;;;;;;;7.68;3.85;;;;;;;;;;5050834;28;20482;-66
2024/01/18 06:07:53;;;;;;;10.52;4.13;;;;;;;;;;5045868;28;20132;-66
2024/01/18 06:10:20;;;;;;;9.23;4.40;;;;;;;;;;5049945;28;20045;-66
2024/01/18 06:12:46;;;;;;;8.50;4.07;;;;;;;;;;5036656;28;20132;-66
2024/01/18 06:15:12;;;;;;;6.85;4.00;;;;;;;;;;5039113;28;20136;-66
2024/01/18 06:17:38;;;;;;;8.68;4.63;;;;;;;;;;5042539;28;20091;-65
2024/01/18 06:20:06;;;;;;;7.47;4.32;;;;;;;;;;5038236;28;20056;-66
2024/01/18 06:22:32;;;;;;;9.60;4.57;;;;;;;;;;5049643;28;20052;-66
2024/01/18 06:25:00;;;;;;;7.95;4.30;;;;;;;;;;5050011;28;20045;-66
2024/01/18 06:27:26;;;;;;;9.00;4.38;;;;;;;;;;5047279;28;20053;-65
2024/01/18 06:29:54;;;;;;;9.18;4.80;;;;;;;;;;5029931;28;20046;-66
2024/01/18 06:32:20;;;;;;;11.85;4.97;;;;;;;;;;5038848;28;20139;-66
2024/01/18 06:34:47;;;;;;;9.10;4.72;;;;;;;;;;5043171;28;20489;-66
2024/01/18 06:37:13;;;;;;;9.27;5.50;;;;;;;;;;5047254;28;20118;-66
2024/01/18 06:39:40;;;;;;;12.07;5.75;;;;;;;;;;5049522;28;20469;-66
2024/01/18 06:42:08;;;;;;;11.50;5.60;;;;;;;;;;5050147;28;20045;-65
2024/01/18 06:44:35;;;;;;;12.10;6.47;;;;;;;;;;5046361;28;20049;-66
2024/01/18 06:47:01;;;;;;;10.77;5.95;;;;;;;;;;5038572;28;20046;-66
2024/01/18 06:49:28;;;;;;;13.43;6.30;;;;;;;;;;5032900;28;20053;-66
2024/01/18 06:51:54;;;;;;;12.15;6.97;;;;;;;;;;5050119;28;20041;-66
2024/01/18 06:54:21;;;;;;;16.63;7.50;;;;;;;;;;5041566;28;20132;-66
2024/01/18 06:56:48;;;;;;;17.10;8.00;;;;;;;;;;5048581;28;20055;-65
2024/01/18 06:59:16;;;;;;;17.20;7.82;;;;;;;;;;5036860;28;20042;-65
2024/01/18 07:01:42;;;;;;;21.35;9.10;;;;;;;;;;5043992;28;20136;-66
2024/01/18 07:04:09;;;;;;;19.98;9.27;;;;;;;;;;5030173;28;20072;-66
2024/01/18 07:06:35;;;;;;;16.95;9.07;;;;;;;;;;5041713;28;20055;-66
2024/01/18 07:09:01;;;;;;;21.27;9.68;;;;;;;;;;5045169;28;20151;-67
2024/01/18 07:11:28;;;;;;;20.17;9.88;;;;;;;;;;5049141;28;20049;-66
2024/01/18 07:13:54;;;;;;;21.15;10.45;;;;;;;;;;5047593;28;20041;-66
2024/01/18 07:16:22;;;;;;;21.25;11.38;;;;;;;;;;5047606;28;20131;-65
2024/01/18 07:18:49;;;;;;;24.42;10.48;;;;;;;;;;5047523;28;20041;-66
2024/01/18 07:21:15;;;;;;;27.80;11.80;;;;;;;;;;5039268;28;20045;-65
2024/01/18 07:23:42;;;;;;;24.85;11.80;;;;;;;;;;5042073;28;20045;-66
2024/01/18 07:26:08;;;;;;;24.88;12.45;;;;;;;;;;5041742;28;20041;-65
2024/01/18 07:28:35;;;;;;;27.70;12.60;;;;;;;;;;5049262;28;20127;-66
2024/01/18 07:31:02;;;;;;;27.92;13.05;;;;;;;;;;5050043;28;20049;-66
2024/01/18 07:33:30;;;;;;;27.50;12.18;;;;;;;;;;5040146;28;20057;-66
2024/01/18 07:35:57;;;;;;;33.25;13.43;;;;;;;;;;5033545;28;20061;-66
2024/01/18 07:38:24;;;;;;;36.45;13.98;;;;;;;;;;5043310;28;20418;-66
2024/01/18 07:40:50;;;;;;;29.67;13.77;;;;;;;;;;5053297;28;20480;-66
2024/01/18 07:43:17;;;;;;;31.92;14.40;;;;;;;;;;5044556;28;20045;-66
2024/01/18 07:45:44;;;;;;;29.45;13.40;;;;;;;;;;5040127;28;20052;-66
2024/01/18 07:48:10;;;;;;;30.65;14.25;;;;;;;;;;5049074;28;20045;-69
2024/01/18 07:50:38;;;;;;;33.47;14.80;;;;;;;;;;5049104;28;20053;-68
2024/01/18 07:53:05;;;;;;;32.97;14.27;;;;;;;;;;5053488;28;20049;-69
2024/01/18 07:55:31;;;;;;;36.05;15.77;;;;;;;;;;5045269;28;20474;-70
2024/01/18 07:57:57;;;;;;;31.88;14.35;;;;;;;;;;5044525;28;20059;-69
2024/01/18 08:00:24;;;;;;;31.33;14.30;;;;;;;;;;5044067;28;20052;-69
2024/01/18 08:02:51;;;;;;;31.63;14.55;;;;;;;;;;5052697;28;20041;-68
2024/01/18 08:05:17;;;;;;;31.13;15.05;;;;;;;;;;5050941;28;20048;-68
2024/01/18 08:07:45;;;;;;;34.47;14.15;;;;;;;;;;5051928;28;20053;-69
2024/01/18 08:10:12;;;;;;;33.05;15.50;;;;;;;;;;5047778;28;20144;-68
2024/01/18 08:12:38;;;;;;;32.45;14.75;;;;;;;;;;5051621;28;20071;-68
2024/01/18 08:15:05;;;;;;;33.20;15.30;;;;;;;;;;5043550;28;20053;-69
2024/01/18 08:17:32;;;;;;;32.85;15.10;;;;;;;;;;5050226;28;20416;-68
2024/01/18 08:19:58;;;;;;;32.88;14.80;;;;;;;;;;5050604;28;20056;-69
2024/01/18 08:22:25;;;;;;;32.13;14.30;;;;;;;;;;5051651;28;20053;-66
2024/01/18 08:24:53;;;;;;;33.28;15.23;;;;;;;;;;5044668;28;20132;-66
2024/01/18 08:27:19;;;;;;;36.53;15.18;;;;;;;;;;5040774;28;20049;-66
2024/01/18 08:29:47;;;;;;;33.53;14.52;;;;;;;;;;5040680;28;20041;-66
2024/01/18 08:32:13;;;;;;;34.00;15.50;;;;;;;;;;5041863;28;20045;-66
2024/01/18 08:34:39;;;;;;;31.08;15.23;;;;;;;;;;5051955;28;20488;-66
2024/01/18 08:37:06;;;;;;;32.22;14.80;;;;;;;;;;5050632;28;20049;-65
2024/01/18 08:39:32;;;;;;;32.55;14.85;;;;;;;;;;5043001;28;20045;-66
2024/01/18 08:42:02;;;;;;;28.42;14.50;;;;;;;;;;5036050;28;20501;-66
2024/01/18 08:44:29;;;;;;;32.75;14.00;;;;;;;;;;5039175;28;20068;-66
2024/01/18 08:46:56;;;;;;;30.67;14.32;;;;;;;;;;5037399;28;20059;-66
2024/01/18 08:49:24;;;;;;;30.65;13.75;;;;;;;;;;5050110;28;20499;-67
2024/01/18 08:51:51;;;;;;;30.60;13.93;;;;;;;;;;5047166;28;20045;-66
2024/01/18 08:54:17;;;;;;;27.40;13.85;;;;;;;;;;5047032;28;20045;-66
2024/01/18 08:56:43;;;;;;;24.52;12.63;;;;;;;;;;5045333;28;20041;-67
2024/01/18 08:59:12;;;;;;;25.25;13.27;;;;;;;;;;5038362;28;20049;-65
2024/01/18 09:01:39;;;;;;;25.60;12.75;;;;;;;;;;5043291;28;20049;-64
2024/01/18 09:04:05;;;;;;;23.60;12.73;;;;;;;;;;5049906;28;20381;-66
2024/01/18 09:06:32;;;;;;;25.17;11.52;;;;;;;;;;5046584;28;20064;-66
2024/01/18 09:08:58;;;;;;;22.67;11.15;;;;;;;;;;5043688;28;20132;-66
2024/01/18 09:11:24;;;;;;;21.52;11.60;;;;;;;;;;5042833;28;20508;-66
2024/01/18 09:13:51;;;;;;;24.65;11.90;;;;;;;;;;5042090;28;20045;-66
2024/01/18 09:16:19;;;;;;;24.42;11.93;;;;;;;;;;5049866;28;20051;-66
2024/01/18 09:18:45;;;;;;;24.80;12.15;;;;;;;;;;5049432;28;20497;-66
2024/01/18 09:21:11;;;;;;;23.00;11.57;;;;;;;;;;5050561;28;20044;-66
2024/01/18 09:23:38;;;;;;;23.50;11.88;;;;;;;;;;5041956;28;20047;-67
2024/01/18 09:26:05;;;;;;;23.25;11.73;;;;;;;;;;5042985;28;20095;-66
2024/01/18 09:28:31;;;;;;;21.10;10.32;;;;;;;;;;5049248;28;20044;-66
2024/01/18 09:30:58;;;;;;;20.92;11.88;;;;;;;;;;5050100;28;20055;-66
2024/01/18 09:33:26;;;;;;;22.85;11.57;;;;;;;;;;5045236;28;20466;-66
2024/01/18 09:35:52;;;;;;;21.98;10.65;;;;;;;;;;5037150;28;20044;-66
2024/01/18 09:38:19;;;;;;;22.80;10.52;;;;;;;;;;5032328;28;20068;-66
2024/01/18 09:40:45;;;;;;;20.85;10.48;;;;;;;;;;5041263;28;20045;-66
2024/01/18 09:43:13;;;;;;;25.88;11.70;;;;;;;;;;5041548;28;20065;-67
2024/01/18 09:45:43;;;;;;;19.13;10.65;;;;;;;;;;5049662;28;20045;-66
2024/01/18 09:48:10;;;;;;;21.05;10.40;;;;;;;;;;5038613;28;20502;-66
2024/01/18 09:50:42;;;;;;;18.52;10.20;;;;;;;;;;5041431;28;20056;-66
2024/01/18 09:53:09;;;;;;;19.00;10.52;;;;;;;;;;5049105;28;20052;-66
2024/01/18 09:55:35;;;;;;;19.65;10.02;;;;;;;;;;5042145;28;20140;-66
2024/01/18 09:58:03;;;;;;;19.77;10.85;;;;;;;;;;5047635;28;20407;-66
2024/01/18 10:00:31;;;;;;;19.30;10.70;;;;;;;;;;5049307;28;20519;-66
2024/01/18 10:02:58;;;;;;;23.23;11.43;;;;;;;;;;5040846;28;20065;-66
2024/01/18 10:05:25;;;;;;;21.15;10.57;;;;;;;;;;5045084;28;20072;-66
2024/01/18 10:07:53;;;;;;;20.58;10.32;;;;;;;;;;5042534;28;20045;-66
2024/01/18 10:10:20;;;;;;;20.83;10.63;;;;;;;;;;5040576;28;20123;-66
2024/01/18 10:12:47;;;;;;;21.95;10.75;;;;;;;;;;5044744;28;20494;-66
2024/01/18 10:15:29;;;;;;;18.20;10.10;;;;;;;;;;5047777;28;20489;-65
2024/01/18 10:17:55;;;;;;;18.38;10.15;;;;;;;;;;5045505;28;20076;-66
2024/01/18 10:20:23;;;;;;;18.63;9.90;;;;;;;;;;5041365;28;20049;-65
2024/01/18 10:22:50;;;;;;;20.38;10.18;;;;;;;;;;5043833;28;20461;-66
2024/01/18 10:25:18;;;;;;;16.55;9.70;;;;;;;;;;5040059;28;20068;-66
2024/01/18 10:27:44;;;;;;;17.58;10.20;;;;;;;;;;5045874;28;20045;-65
2024/01/18 10:30:12;;;;;;;18.38;10.13;;;;;;;;;;5040756;28;20577;-66
2024/01/18 10:32:39;;;;;;;17.75;10.13;;;;;;;;;;5037781;28;20055;-65
2024/01/18 10:35:06;;;;;;;20.80;10.73;;;;;;;;;;5049931;28;20045;-65
2024/01/18 10:37:34;;;;;;;20.45;11.02;;;;;;;;;;5037122;28;20055;-66
2024/01/18 10:40:02;;;;;;;20.35;10.98;;;;;;;;;;5046358;28;20056;-66
2024/01/18 10:42:30;;;;;;;17.73;10.38;;;;;;;;;;5037861;28;20052;-66
2024/01/18 10:44:56;;;;;;;19.55;10.98;;;;;;;;;;5044183;28;20044;-65
2024/01/18 10:47:23;;;;;;;16.58;9.68;;;;;;;;;;5037092;28;20057;-66
2024/01/18 10:49:50;;;;;;;18.30;9.68;;;;;;;;;;5034519;28;20077;-65
2024/01/18 10:52:16;;;;;;;16.20;9.52;;;;;;;;;;5049489;28;20128;-66
2024/01/18 10:54:43;;;;;;;19.30;10.18;;;;;;;;;;5040837;28;20041;-66
2024/01/18 10:57:09;;;;;;;19.75;9.90;;;;;;;;;;5037984;28;20488;-66
2024/01/18 10:59:37;;;;;;;19.40;9.88;;;;;;;;;;5049161;28;20386;-66
2024/01/18 11:02:04;;;;;;;16.23;9.48;;;;;;;;;;5040920;28;20052;-65
2024/01/18 11:04:31;;;;;;;18.05;10.27;;;;;;;;;;5042215;28;20053;-66
2024/01/18 11:06:58;;;;;;;18.17;9.80;;;;;;;;;;5047962;28;20053;-66
2024/01/18 11:09:26;;;;;;;19.10;9.80;;;;;;;;;;5041078;28;20045;-66
2024/01/18 11:11:53;;;;;;;21.30;11.15;;;;;;;;;;5038215;28;20120;-66
2024/01/18 11:14:20;;;;;;;17.75;10.02;;;;;;;;;;5043432;28;20533;-66
2024/01/18 11:16:48;;;;;;;20.20;10.45;;;;;;;;;;5052343;28;20055;-66
2024/01/18 11:19:16;;;;;;;17.33;8.95;;;;;;;;;;5050944;28;20047;-66
2024/01/18 11:21:43;;;;;;;15.13;8.10;;;;;;;;;;5042473;28;20045;-66
2024/01/18 11:24:10;;;;;;;14.38;8.25;;;;;;;;;;5052554;28;20049;-66
2024/01/18 11:26:37;;;;;;;18.23;8.15;;;;;;;;;;5044642;28;20045;-66
2024/01/18 11:29:18;;;;;;;18.02;9.20;;;;;;;;;;5039957;28;20050;-66
2024/01/18 11:31:46;;;;;;;15.40;8.10;;;;;;;;;;5050116;28;20072;-65
2024/01/18 11:34:21;;;;;;;14.55;7.93;;;;;;;;;;5044326;28;20353;-65
2024/01/18 11:36:47;;;;;;;14.65;7.28;;;;;;;;;;5044405;28;20077;-66
2024/01/18 11:39:14;;;;;;;16.17;7.55;;;;;;;;;;5049492;28;20054;-66
2024/01/18 11:41:41;;;;;;;15.98;7.68;;;;;;;;;;5044422;28;20045;-65
2024/01/18 11:44:10;;;;;;;16.45;7.22;;;;;;;;;;5041815;28;20489;-66
2024/01/18 11:46:39;;;;;;;15.40;7.20;;;;;;;;;;5041333;28;20136;-65
2024/01/18 11:49:05;;;;;;;13.48;7.15;;;;;;;;;;5049022;28;20059;-66
2024/01/18 11:51:33;;;;;;;14.13;6.35;;;;;;;;;;5044629;28;20742;-65
2024/01/18 11:54:00;;;;;;;15.80;6.95;;;;;;;;;;5048229;28;20049;-65
2024/01/18 11:56:28;;;;;;;14.80;7.13;;;;;;;;;;5051437;28;20860;-66
2024/01/18 11:58:55;;;;;;;15.02;6.72;;;;;;;;;;5050789;28;20060;-66
2024/01/18 12:01:22;;;;;;;14.05;6.95;;;;;;;;;;5049255;28;20091;-65
2024/01/18 12:03:48;;;;;;;12.82;6.80;;;;;;;;;;5045726;28;20420;-66
2024/01/18 12:06:15;;;;;;;15.25;7.35;;;;;;;;;;5051916;28;20414;-66
2024/01/18 12:08:44;;;;;;;13.32;6.78;;;;;;;;;;5051346;28;20057;-65
2024/01/18 12:11:10;;;;;;;14.65;7.43;;;;;;;;;;5052764;28;20415;-66
2024/01/18 12:13:37;;;;;;;17.45;7.88;;;;;;;;;;5049049;28;20532;-66
2024/01/18 12:16:04;;;;;;;13.27;5.93;;;;;;;;;;5048645;28;20127;-66
2024/01/18 12:18:38;;;;;;;13.30;6.82;;;;;;;;;;5031122;28;20056;-65
2024/01/18 12:21:05;;;;;;;11.90;6.10;;;;;;;;;;5048184;28;20405;-66
2024/01/18 12:23:31;;;;;;;9.52;5.63;;;;;;;;;;5052131;28;20053;-66
2024/01/18 12:25:59;;;;;;;12.18;5.10;;;;;;;;;;5052616;28;20660;-66
2024/01/18 12:28:26;;;;;;;8.45;4.40;;;;;;;;;;5043023;28;20063;-65
2024/01/18 12:31:00;;;;;;;9.70;4.53;;;;;;;;;;5052415;28;20483;-66
2024/01/18 12:33:27;;;;;;;10.32;4.65;;;;;;;;;;5044569;28;20056;-66
2024/01/18 12:35:54;;;;;;;11.23;4.88;;;;;;;;;;5048099;28;20051;-65
2024/01/18 12:38:20;;;;;;;8.48;4.43;;;;;;;;;;5042983;28;20152;-66
2024/01/18 12:40:47;;;;;;;12.68;4.85;;;;;;;;;;5043819;28;20053;-65
2024/01/18 12:43:14;;;;;;;11.40;5.85;;;;;;;;;;5043235;28;20053;-66
2024/01/18 12:45:42;;;;;;;13.40;5.13;;;;;;;;;;5044151;28;20055;-66
2024/01/18 12:48:09;;;;;;;11.95;5.93;;;;;;;;;;5050432;28;20053;-65
2024/01/18 12:50:36;;;;;;;10.27;5.25;;;;;;;;;;5047045;28;20059;-66
2024/01/18 12:53:03;;;;;;;9.80;4.57;;;;;;;;;;5051877;28;20041;-67
2024/01/18 12:55:30;;;;;;;12.05;5.53;;;;;;;;;;5035914;28;20135;-66
2024/01/18 12:57:58;;;;;;;12.18;5.57;;;;;;;;;;5044355;28;20132;-66
2024/01/18 13:00:25;;;;;;;13.05;5.07;;;;;;;;;;5034540;28;20087;-66
2024/01/18 13:02:52;;;;;;;9.82;5.10;;;;;;;;;;5047330;28;20055;-66
2024/01/18 13:05:19;;;;;;;13.15;6.38;;;;;;;;;;5041577;28;20049;-65
2024/01/18 13:07:45;;;;;;;8.85;5.28;;;;;;;;;;5045176;28;20077;-66
2024/01/18 13:10:12;;;;;;;12.30;5.15;;;;;;;;;;5042841;28;20467;-65
2024/01/18 13:12:39;;;;;;;9.43;5.38;;;;;;;;;;5051092;28;20052;-65
2024/01/18 13:15:06;;;;;;;10.13;4.72;;;;;;;;;;5043581;28;20045;-66
2024/01/18 13:17:34;;;;;;;12.02;4.93;;;;;;;;;;5046210;28;20055;-65
2024/01/18 13:20:00;;;;;;;10.80;5.13;;;;;;;;;;5050456;28;20040;-66
2024/01/18 13:22:26;;;;;;;11.77;4.85;;;;;;;;;;5051061;28;20045;-65
2024/01/18 13:24:53;;;;;;;12.50;5.32;;;;;;;;;;5045058;28;20041;-65
2024/01/18 13:27:19;;;;;;;11.95;5.90;;;;;;;;;;5041751;28;20492;-65
2024/01/18 13:29:46;;;;;;;9.88;4.93;;;;;;;;;;5049554;28;20057;-66
2024/01/18 13:32:12;;;;;;;12.00;5.30;;;;;;;;;;5038839;28;20047;-65
2024/01/18 13:34:40;;;;;;;11.57;6.10;;;;;;;;;;5038519;28;20045;-66
2024/01/18 13:37:06;;;;;;;9.45;5.10;;;;;;;;;;5039848;28;20044;-65
2024/01/18 13:39:33;;;;;;;13.75;5.80;;;;;;;;;;5041786;28;20040;-66
2024/01/18 13:42:00;;;;;;;12.73;5.72;;;;;;;;;;5042244;28;20049;-66
2024/01/18 13:44:26;;;;;;;11.32;5.38;;;;;;;;;;5040645;28;20063;-65
2024/01/18 13:46:52;;;;;;;9.98;5.47;;;;;;;;;;5042925;28;20664;-65
2024/01/18 13:49:19;;;;;;;10.65;4.82;;;;;;;;;;5039184;28;20474;-66
2024/01/18 13:51:47;;;;;;;12.20;6.22;;;;;;;;;;5046018;28;20147;-65
2024/01/18 13:54:13;;;;;;;10.85;5.78;;;;;;;;;;5049138;28;20072;-66
2024/01/18 13:56:39;;;;;;;13.50;5.78;;;;;;;;;;5039191;28;20051;-65
2024/01/18 13:59:06;;;;;;;11.65;5.68;;;;;;;;;;5048252;28;20372;-65
2024/01/18 14:01:33;;;;;;;11.15;5.13;;;;;;;;;;5049241;28;20048;-65
2024/01/18 14:03:59;;;;;;;12.65;5.25;;;;;;;;;;5043003;28;20148;-65
2024/01/18 14:06:26;;;;;;;8.88;4.32;;;;;;;;;;5050183;28;20057;-65
2024/01/18 14:08:53;;;;;;;6.40;3.58;;;;;;;;;;5035742;28;20519;-65
2024/01/18 14:11:20;;;;;;;6.68;4.00;;;;;;;;;;5049003;28;20065;-65
2024/01/18 14:13:46;;;;;;;9.32;4.10;;;;;;;;;;5045565;28;20055;-65
2024/01/18 14:16:13;;;;;;;7.63;3.88;;;;;;;;;;5039296;28;20046;-65
2024/01/18 14:18:39;;;;;;;6.03;3.47;;;;;;;;;;5049857;28;20083;-65
2024/01/18 14:21:06;;;;;;;5.90;3.35;;;;;;;;;;5050545;28;20489;-65
2024/01/18 14:23:32;;;;;;;7.28;3.45;;;;;;;;;;5049935;28;20505;-65
2024/01/18 14:26:00;;;;;;;6.57;3.65;;;;;;;;;;5043102;28;20057;-65
2024/01/18 14:28:27;;;;;;;5.30;3.20;;;;;;;;;;5040564;28;20428;-65